sensor_id;sensor_type;location;lat;lon;timestamp;P1;durP1;ratioP1;P2;durP2;ratioP2
84288;SDS011;74602;50.294;18.660;2023-12-04T00:01:51;31.13;;;13.60;;
84288;SDS011;74602;50.294;18.660;2023-12-04T00:04:16;32.63;;;14.48;;
84288;SDS011;74602;50.294;18.660;2023-12-04T00:06:42;27.33;;;13.32;;
84288;SDS011;74602;50.294;18.660;2023-12-04T00:09:07;29.48;;;13.65;;
84288;SDS011;74602;50.294;18.660;2023-12-04T00:11:33;34.13;;;15.43;;
84288;SDS011;74602;50.294;18.660;2023-12-04T00:13:58;26.40;;;12.45;;
84288;SDS011;74602;50.294;18.660;2023-12-04T00:16:24;29.83;;;13.88;;
84288;SDS011;74602;50.294;18.660;2023-12-04T00:18:50;29.98;;;12.07;;
84288;SDS011;74602;50.294;18.660;2023-12-04T00:21:15;27.75;;;13.18;;
84288;SDS011;74602;50.294;18.660;2023-12-04T00:23:40;31.02;;;13.70;;
84288;SDS011;74602;50.294;18.660;2023-12-04T00:26:06;25.52;;;12.88;;
84288;SDS011;74602;50.294;18.660;2023-12-04T00:28:35;27.02;;;13.63;;
84288;SDS011;74602;50.294;18.660;2023-12-04T00:31:01;25.95;;;11.50;;
84288;SDS011;74602;50.294;18.660;2023-12-04T00:33:26;28.02;;;12.20;;
84288;SDS011;74602;50.294;18.660;2023-12-04T00:35:52;30.60;;;14.40;;
84288;SDS011;74602;50.294;18.660;2023-12-04T00:38:17;30.50;;;13.57;;
84288;SDS011;74602;50.294;18.660;2023-12-04T00:40:42;30.40;;;13.57;;
84288;SDS011;74602;50.294;18.660;2023-12-04T00:43:08;26.88;;;13.52;;
84288;SDS011;74602;50.294;18.660;2023-12-04T00:45:33;26.70;;;13.27;;
84288;SDS011;74602;50.294;18.660;2023-12-04T00:47:59;28.23;;;13.70;;
84288;SDS011;74602;50.294;18.660;2023-12-04T00:50:24;26.90;;;13.43;;
84288;SDS011;74602;50.294;18.660;2023-12-04T00:52:49;35.07;;;15.07;;
84288;SDS011;74602;50.294;18.660;2023-12-04T00:55:15;30.23;;;14.35;;
84288;SDS011;74602;50.294;18.660;2023-12-04T00:57:40;21.73;;;10.00;;
84288;SDS011;74602;50.294;18.660;2023-12-04T01:00:06;30.83;;;13.97;;
84288;SDS011;74602;50.294;18.660;2023-12-04T01:02:31;33.15;;;14.23;;
84288;SDS011;74602;50.294;18.660;2023-12-04T01:04:57;33.45;;;14.88;;
84288;SDS011;74602;50.294;18.660;2023-12-04T01:07:22;28.07;;;14.00;;
84288;SDS011;74602;50.294;18.660;2023-12-04T01:09:47;31.40;;;13.43;;
84288;SDS011;74602;50.294;18.660;2023-12-04T01:12:13;34.55;;;15.32;;
84288;SDS011;74602;50.294;18.660;2023-12-04T01:14:38;33.63;;;14.18;;
84288;SDS011;74602;50.294;18.660;2023-12-04T01:17:04;31.83;;;15.13;;
84288;SDS011;74602;50.294;18.660;2023-12-04T01:19:29;33.75;;;14.40;;
84288;SDS011;74602;50.294;18.660;2023-12-04T01:21:54;31.03;;;13.33;;
84288;SDS011;74602;50.294;18.660;2023-12-04T01:24:20;33.25;;;13.95;;
84288;SDS011;74602;50.294;18.660;2023-12-04T01:26:45;35.80;;;15.13;;
84288;SDS011;74602;50.294;18.660;2023-12-04T01:29:10;29.63;;;14.23;;
84288;SDS011;74602;50.294;18.660;2023-12-04T01:31:36;27.35;;;13.32;;
84288;SDS011;74602;50.294;18.660;2023-12-04T01:34:01;32.93;;;14.70;;
84288;SDS011;74602;50.294;18.660;2023-12-04T01:36:26;29.80;;;14.00;;
84288;SDS011;74602;50.294;18.660;2023-12-04T01:38:52;30.27;;;14.07;;
84288;SDS011;74602;50.294;18.660;2023-12-04T01:41:17;28.43;;;12.77;;
84288;SDS011;74602;50.294;18.660;2023-12-04T01:43:43;29.50;;;13.75;;
84288;SDS011;74602;50.294;18.660;2023-12-04T01:46:08;33.22;;;15.75;;
84288;SDS011;74602;50.294;18.660;2023-12-04T01:48:34;28.70;;;12.75;;
84288;SDS011;74602;50.294;18.660;2023-12-04T01:51:02;31.95;;;14.20;;
84288;SDS011;74602;50.294;18.660;2023-12-04T01:53:31;28.83;;;13.95;;
84288;SDS011;74602;50.294;18.660;2023-12-04T01:55:58;27.35;;;14.07;;
84288;SDS011;74602;50.294;18.660;2023-12-04T01:58:23;35.65;;;15.60;;
84288;SDS011;74602;50.294;18.660;2023-12-04T02:00:49;33.95;;;15.55;;
84288;SDS011;74602;50.294;18.660;2023-12-04T02:03:14;34.17;;;14.75;;
84288;SDS011;74602;50.294;18.660;2023-12-04T02:05:40;37.45;;;15.48;;
84288;SDS011;74602;50.294;18.660;2023-12-04T02:08:09;36.55;;;15.95;;
84288;SDS011;74602;50.294;18.660;2023-12-04T02:10:35;29.67;;;12.95;;
84288;SDS011;74602;50.294;18.660;2023-12-04T02:13:01;35.55;;;17.08;;
84288;SDS011;74602;50.294;18.660;2023-12-04T02:15:26;35.72;;;16.08;;
84288;SDS011;74602;50.294;18.660;2023-12-04T02:17:52;40.20;;;15.70;;
84288;SDS011;74602;50.294;18.660;2023-12-04T02:20:18;44.83;;;18.67;;
84288;SDS011;74602;50.294;18.660;2023-12-04T02:22:43;41.15;;;17.15;;
84288;SDS011;74602;50.294;18.660;2023-12-04T02:25:09;44.67;;;17.27;;
84288;SDS011;74602;50.294;18.660;2023-12-04T02:27:40;42.78;;;17.98;;
84288;SDS011;74602;50.294;18.660;2023-12-04T02:30:12;29.92;;;15.55;;
84288;SDS011;74602;50.294;18.660;2023-12-04T02:32:39;40.70;;;18.63;;
84288;SDS011;74602;50.294;18.660;2023-12-04T02:35:10;35.20;;;15.45;;
84288;SDS011;74602;50.294;18.660;2023-12-04T02:37:37;36.15;;;17.52;;
84288;SDS011;74602;50.294;18.660;2023-12-04T02:40:03;40.63;;;17.17;;
84288;SDS011;74602;50.294;18.660;2023-12-04T02:42:31;38.42;;;16.58;;
84288;SDS011;74602;50.294;18.660;2023-12-04T02:44:57;42.40;;;18.20;;
84288;SDS011;74602;50.294;18.660;2023-12-04T02:47:22;38.03;;;17.15;;
84288;SDS011;74602;50.294;18.660;2023-12-04T02:49:47;38.75;;;17.77;;
84288;SDS011;74602;50.294;18.660;2023-12-04T02:52:13;38.33;;;17.13;;
84288;SDS011;74602;50.294;18.660;2023-12-04T02:54:38;32.95;;;15.85;;
84288;SDS011;74602;50.294;18.660;2023-12-04T02:57:04;39.63;;;17.50;;
84288;SDS011;74602;50.294;18.660;2023-12-04T02:59:29;37.08;;;17.38;;
84288;SDS011;74602;50.294;18.660;2023-12-04T03:01:54;46.78;;;17.65;;
84288;SDS011;74602;50.294;18.660;2023-12-04T03:04:20;46.83;;;18.67;;
84288;SDS011;74602;50.294;18.660;2023-12-04T03:06:45;35.72;;;16.73;;
84288;SDS011;74602;50.294;18.660;2023-12-04T03:09:11;40.40;;;18.48;;
84288;SDS011;74602;50.294;18.660;2023-12-04T03:11:39;39.83;;;18.48;;
84288;SDS011;74602;50.294;18.660;2023-12-04T03:14:05;33.60;;;16.05;;
84288;SDS011;74602;50.294;18.660;2023-12-04T03:16:31;44.60;;;19.48;;
84288;SDS011;74602;50.294;18.660;2023-12-04T03:18:57;33.45;;;16.15;;
84288;SDS011;74602;50.294;18.660;2023-12-04T03:21:23;42.33;;;18.15;;
84288;SDS011;74602;50.294;18.660;2023-12-04T03:23:48;45.28;;;20.65;;
84288;SDS011;74602;50.294;18.660;2023-12-04T03:26:13;34.37;;;16.77;;
84288;SDS011;74602;50.294;18.660;2023-12-04T03:28:39;43.40;;;18.40;;
84288;SDS011;74602;50.294;18.660;2023-12-04T03:31:07;32.92;;;16.83;;
84288;SDS011;74602;50.294;18.660;2023-12-04T03:33:33;43.17;;;17.70;;
84288;SDS011;74602;50.294;18.660;2023-12-04T03:35:59;44.45;;;17.60;;
84288;SDS011;74602;50.294;18.660;2023-12-04T03:38:24;38.67;;;16.50;;
84288;SDS011;74602;50.294;18.660;2023-12-04T03:40:49;32.42;;;16.83;;
84288;SDS011;74602;50.294;18.660;2023-12-04T03:43:15;35.08;;;16.77;;
84288;SDS011;74602;50.294;18.660;2023-12-04T03:45:40;36.75;;;17.45;;
84288;SDS011;74602;50.294;18.660;2023-12-04T03:48:06;41.58;;;18.88;;
84288;SDS011;74602;50.294;18.660;2023-12-04T03:50:31;42.72;;;18.48;;
84288;SDS011;74602;50.294;18.660;2023-12-04T03:52:57;37.40;;;17.40;;
84288;SDS011;74602;50.294;18.660;2023-12-04T03:55:22;41.20;;;18.27;;
84288;SDS011;74602;50.294;18.660;2023-12-04T03:57:47;37.75;;;17.70;;
84288;SDS011;74602;50.294;18.660;2023-12-04T04:00:13;42.60;;;17.67;;
84288;SDS011;74602;50.294;18.660;2023-12-04T04:02:39;35.25;;;16.65;;
84288;SDS011;74602;50.294;18.660;2023-12-04T04:05:05;39.75;;;16.58;;
84288;SDS011;74602;50.294;18.660;2023-12-04T04:07:30;38.55;;;18.23;;
84288;SDS011;74602;50.294;18.660;2023-12-04T04:09:56;43.15;;;18.67;;
84288;SDS011;74602;50.294;18.660;2023-12-04T04:12:21;36.88;;;18.73;;
84288;SDS011;74602;50.294;18.660;2023-12-04T04:14:47;41.20;;;17.85;;
84288;SDS011;74602;50.294;18.660;2023-12-04T04:17:12;36.65;;;16.58;;
84288;SDS011;74602;50.294;18.660;2023-12-04T04:19:38;40.97;;;17.52;;
84288;SDS011;74602;50.294;18.660;2023-12-04T04:22:03;42.17;;;18.42;;
84288;SDS011;74602;50.294;18.660;2023-12-04T04:24:29;44.90;;;18.75;;
84288;SDS011;74602;50.294;18.660;2023-12-04T04:26:54;37.80;;;17.40;;
84288;SDS011;74602;50.294;18.660;2023-12-04T04:29:19;35.78;;;16.58;;
84288;SDS011;74602;50.294;18.660;2023-12-04T04:31:45;37.72;;;18.45;;
84288;SDS011;74602;50.294;18.660;2023-12-04T04:34:10;36.45;;;17.58;;
84288;SDS011;74602;50.294;18.660;2023-12-04T04:36:36;37.15;;;16.83;;
84288;SDS011;74602;50.294;18.660;2023-12-04T04:39:01;37.00;;;16.93;;
84288;SDS011;74602;50.294;18.660;2023-12-04T04:41:27;32.10;;;17.00;;
84288;SDS011;74602;50.294;18.660;2023-12-04T04:43:52;31.33;;;16.15;;
84288;SDS011;74602;50.294;18.660;2023-12-04T04:46:18;33.42;;;16.90;;
84288;SDS011;74602;50.294;18.660;2023-12-04T04:48:43;37.67;;;17.88;;
84288;SDS011;74602;50.294;18.660;2023-12-04T04:51:09;45.42;;;20.48;;
84288;SDS011;74602;50.294;18.660;2023-12-04T04:53:34;42.10;;;21.38;;
84288;SDS011;74602;50.294;18.660;2023-12-04T04:56:00;37.70;;;21.52;;
84288;SDS011;74602;50.294;18.660;2023-12-04T04:58:25;45.28;;;21.98;;
84288;SDS011;74602;50.294;18.660;2023-12-04T05:00:50;43.88;;;21.85;;
84288;SDS011;74602;50.294;18.660;2023-12-04T05:03:16;43.97;;;22.27;;
84288;SDS011;74602;50.294;18.660;2023-12-04T05:05:41;45.83;;;21.83;;
84288;SDS011;74602;50.294;18.660;2023-12-04T05:08:07;40.38;;;20.65;;
84288;SDS011;74602;50.294;18.660;2023-12-04T05:10:32;44.22;;;21.02;;
84288;SDS011;74602;50.294;18.660;2023-12-04T05:12:57;36.47;;;18.60;;
84288;SDS011;74602;50.294;18.660;2023-12-04T05:15:23;43.03;;;20.25;;
84288;SDS011;74602;50.294;18.660;2023-12-04T05:17:48;42.25;;;19.55;;
84288;SDS011;74602;50.294;18.660;2023-12-04T05:20:14;43.97;;;18.63;;
84288;SDS011;74602;50.294;18.660;2023-12-04T05:22:39;40.63;;;19.08;;
84288;SDS011;74602;50.294;18.660;2023-12-04T05:25:05;47.65;;;19.33;;
84288;SDS011;74602;50.294;18.660;2023-12-04T05:27:31;40.90;;;19.02;;
84288;SDS011;74602;50.294;18.660;2023-12-04T05:29:56;34.13;;;19.75;;
84288;SDS011;74602;50.294;18.660;2023-12-04T05:32:22;38.83;;;18.88;;
84288;SDS011;74602;50.294;18.660;2023-12-04T05:34:47;38.22;;;18.50;;
84288;SDS011;74602;50.294;18.660;2023-12-04T05:37:13;38.40;;;17.98;;
84288;SDS011;74602;50.294;18.660;2023-12-04T05:39:38;41.03;;;19.97;;
84288;SDS011;74602;50.294;18.660;2023-12-04T05:42:03;38.75;;;18.75;;
84288;SDS011;74602;50.294;18.660;2023-12-04T05:44:30;40.60;;;18.58;;
84288;SDS011;74602;50.294;18.660;2023-12-04T05:46:56;37.88;;;18.20;;
84288;SDS011;74602;50.294;18.660;2023-12-04T05:49:22;41.33;;;18.70;;
84288;SDS011;74602;50.294;18.660;2023-12-04T05:51:47;36.40;;;16.58;;
84288;SDS011;74602;50.294;18.660;2023-12-04T05:54:13;39.30;;;18.95;;
84288;SDS011;74602;50.294;18.660;2023-12-04T05:56:38;44.42;;;20.85;;
84288;SDS011;74602;50.294;18.660;2023-12-04T05:59:03;51.40;;;24.03;;
84288;SDS011;74602;50.294;18.660;2023-12-04T06:01:29;45.55;;;21.42;;
84288;SDS011;74602;50.294;18.660;2023-12-04T06:03:54;70.28;;;31.85;;
84288;SDS011;74602;50.294;18.660;2023-12-04T06:06:20;54.10;;;25.65;;
84288;SDS011;74602;50.294;18.660;2023-12-04T06:08:45;53.30;;;24.73;;
84288;SDS011;74602;50.294;18.660;2023-12-04T06:11:10;52.42;;;23.60;;
84288;SDS011;74602;50.294;18.660;2023-12-04T06:13:36;47.67;;;22.70;;
84288;SDS011;74602;50.294;18.660;2023-12-04T06:16:01;51.77;;;22.23;;
84288;SDS011;74602;50.294;18.660;2023-12-04T06:18:27;51.63;;;23.60;;
84288;SDS011;74602;50.294;18.660;2023-12-04T06:20:52;51.53;;;22.70;;
84288;SDS011;74602;50.294;18.660;2023-12-04T06:23:17;59.50;;;24.10;;
84288;SDS011;74602;50.294;18.660;2023-12-04T06:25:46;64.32;;;26.05;;
84288;SDS011;74602;50.294;18.660;2023-12-04T06:28:12;59.08;;;26.60;;
84288;SDS011;74602;50.294;18.660;2023-12-04T06:30:37;63.50;;;29.38;;
84288;SDS011;74602;50.294;18.660;2023-12-04T06:33:03;55.80;;;27.27;;
84288;SDS011;74602;50.294;18.660;2023-12-04T06:35:29;57.75;;;27.80;;
84288;SDS011;74602;50.294;18.660;2023-12-04T06:37:55;58.95;;;26.05;;
84288;SDS011;74602;50.294;18.660;2023-12-04T06:40:21;68.80;;;31.13;;
84288;SDS011;74602;50.294;18.660;2023-12-04T06:42:47;62.42;;;28.77;;
84288;SDS011;74602;50.294;18.660;2023-12-04T06:45:13;74.22;;;32.58;;
84288;SDS011;74602;50.294;18.660;2023-12-04T06:47:40;72.53;;;32.03;;
84288;SDS011;74602;50.294;18.660;2023-12-04T06:50:08;79.78;;;35.80;;
84288;SDS011;74602;50.294;18.660;2023-12-04T06:52:33;82.35;;;36.92;;
84288;SDS011;74602;50.294;18.660;2023-12-04T06:54:59;79.43;;;35.73;;
84288;SDS011;74602;50.294;18.660;2023-12-04T06:57:24;77.43;;;37.57;;
84288;SDS011;74602;50.294;18.660;2023-12-04T06:59:50;82.25;;;35.83;;
84288;SDS011;74602;50.294;18.660;2023-12-04T07:02:15;81.35;;;37.63;;
84288;SDS011;74602;50.294;18.660;2023-12-04T07:04:41;92.43;;;39.70;;
84288;SDS011;74602;50.294;18.660;2023-12-04T07:07:06;80.93;;;37.83;;
84288;SDS011;74602;50.294;18.660;2023-12-04T07:09:32;79.70;;;35.53;;
84288;SDS011;74602;50.294;18.660;2023-12-04T07:11:58;87.38;;;37.58;;
84288;SDS011;74602;50.294;18.660;2023-12-04T07:14:24;75.93;;;35.53;;
84288;SDS011;74602;50.294;18.660;2023-12-04T07:16:49;74.47;;;34.15;;
84288;SDS011;74602;50.294;18.660;2023-12-04T07:19:15;130.57;;;51.45;;
84288;SDS011;74602;50.294;18.660;2023-12-04T07:21:41;99.45;;;39.92;;
84288;SDS011;74602;50.294;18.660;2023-12-04T07:24:07;98.03;;;37.55;;
84288;SDS011;74602;50.294;18.660;2023-12-04T07:26:33;98.20;;;40.08;;
84288;SDS011;74602;50.294;18.660;2023-12-04T07:29:00;94.70;;;41.78;;
84288;SDS011;74602;50.294;18.660;2023-12-04T07:31:25;106.80;;;43.15;;
84288;SDS011;74602;50.294;18.660;2023-12-04T07:33:54;78.45;;;34.97;;
84288;SDS011;74602;50.294;18.660;2023-12-04T07:36:20;71.85;;;32.33;;
84288;SDS011;74602;50.294;18.660;2023-12-04T07:38:46;84.68;;;34.53;;
84288;SDS011;74602;50.294;18.660;2023-12-04T07:41:11;89.93;;;39.35;;
84288;SDS011;74602;50.294;18.660;2023-12-04T07:43:37;94.20;;;36.95;;
84288;SDS011;74602;50.294;18.660;2023-12-04T07:46:02;92.00;;;39.92;;
84288;SDS011;74602;50.294;18.660;2023-12-04T07:48:28;96.85;;;38.00;;
84288;SDS011;74602;50.294;18.660;2023-12-04T07:50:54;106.38;;;43.58;;
84288;SDS011;74602;50.294;18.660;2023-12-04T07:53:20;107.60;;;43.22;;
84288;SDS011;74602;50.294;18.660;2023-12-04T07:55:45;108.05;;;46.22;;
84288;SDS011;74602;50.294;18.660;2023-12-04T07:58:13;117.07;;;47.60;;
84288;SDS011;74602;50.294;18.660;2023-12-04T08:00:38;102.38;;;46.00;;
84288;SDS011;74602;50.294;18.660;2023-12-04T08:03:04;103.97;;;43.28;;
84288;SDS011;74602;50.294;18.660;2023-12-04T08:05:29;101.60;;;46.58;;
84288;SDS011;74602;50.294;18.660;2023-12-04T08:07:56;111.40;;;46.38;;
84288;SDS011;74602;50.294;18.660;2023-12-04T08:10:22;103.70;;;44.22;;
84288;SDS011;74602;50.294;18.660;2023-12-04T08:12:48;104.45;;;47.05;;
84288;SDS011;74602;50.294;18.660;2023-12-04T08:15:13;106.10;;;48.40;;
84288;SDS011;74602;50.294;18.660;2023-12-04T08:17:38;85.30;;;39.13;;
84288;SDS011;74602;50.294;18.660;2023-12-04T08:20:04;97.80;;;45.20;;
84288;SDS011;74602;50.294;18.660;2023-12-04T08:22:31;98.95;;;40.88;;
84288;SDS011;74602;50.294;18.660;2023-12-04T08:24:56;86.90;;;40.30;;
84288;SDS011;74602;50.294;18.660;2023-12-04T08:27:23;87.28;;;39.75;;
84288;SDS011;74602;50.294;18.660;2023-12-04T08:29:49;77.15;;;33.10;;
84288;SDS011;74602;50.294;18.660;2023-12-04T08:32:15;83.72;;;34.42;;
84288;SDS011;74602;50.294;18.660;2023-12-04T08:34:40;74.32;;;31.98;;
84288;SDS011;74602;50.294;18.660;2023-12-04T08:37:05;54.55;;;24.73;;
84288;SDS011;74602;50.294;18.660;2023-12-04T08:39:31;52.15;;;27.00;;
84288;SDS011;74602;50.294;18.660;2023-12-04T08:41:56;62.75;;;27.10;;
84288;SDS011;74602;50.294;18.660;2023-12-04T08:44:22;55.85;;;23.90;;
84288;SDS011;74602;50.294;18.660;2023-12-04T08:46:48;56.10;;;23.05;;
84288;SDS011;74602;50.294;18.660;2023-12-04T08:49:15;45.00;;;21.20;;
84288;SDS011;74602;50.294;18.660;2023-12-04T08:51:40;51.13;;;20.92;;
84288;SDS011;74602;50.294;18.660;2023-12-04T08:54:06;51.60;;;20.10;;
84288;SDS011;74602;50.294;18.660;2023-12-04T08:56:32;47.30;;;21.00;;
84288;SDS011;74602;50.294;18.660;2023-12-04T08:58:57;39.95;;;18.95;;
84288;SDS011;74602;50.294;18.660;2023-12-04T09:01:23;36.83;;;18.08;;
84288;SDS011;74602;50.294;18.660;2023-12-04T09:03:48;38.13;;;19.20;;
84288;SDS011;74602;50.294;18.660;2023-12-04T09:06:13;35.97;;;17.35;;
84288;SDS011;74602;50.294;18.660;2023-12-04T09:08:40;39.00;;;17.42;;
84288;SDS011;74602;50.294;18.660;2023-12-04T09:11:06;34.78;;;17.55;;
84288;SDS011;74602;50.294;18.660;2023-12-04T09:13:32;33.50;;;17.30;;
84288;SDS011;74602;50.294;18.660;2023-12-04T09:15:58;41.10;;;18.58;;
84288;SDS011;74602;50.294;18.660;2023-12-04T09:18:24;39.70;;;18.83;;
84288;SDS011;74602;50.294;18.660;2023-12-04T09:20:50;33.83;;;17.58;;
84288;SDS011;74602;50.294;18.660;2023-12-04T09:23:15;38.90;;;18.45;;
84288;SDS011;74602;50.294;18.660;2023-12-04T09:25:40;38.75;;;18.77;;
84288;SDS011;74602;50.294;18.660;2023-12-04T09:28:06;39.90;;;18.13;;
84288;SDS011;74602;50.294;18.660;2023-12-04T09:30:33;34.22;;;16.52;;
84288;SDS011;74602;50.294;18.660;2023-12-04T09:33:00;35.13;;;16.30;;
84288;SDS011;74602;50.294;18.660;2023-12-04T09:35:26;41.13;;;18.30;;
84288;SDS011;74602;50.294;18.660;2023-12-04T09:37:51;36.03;;;17.60;;
84288;SDS011;74602;50.294;18.660;2023-12-04T09:40:16;35.38;;;17.50;;
84288;SDS011;74602;50.294;18.660;2023-12-04T09:42:42;46.08;;;19.35;;
84288;SDS011;74602;50.294;18.660;2023-12-04T09:45:08;40.53;;;17.30;;
84288;SDS011;74602;50.294;18.660;2023-12-04T09:47:34;32.50;;;17.20;;
84288;SDS011;74602;50.294;18.660;2023-12-04T09:50:00;39.03;;;16.58;;
84288;SDS011;74602;50.294;18.660;2023-12-04T09:52:27;34.47;;;16.00;;
84288;SDS011;74602;50.294;18.660;2023-12-04T09:54:53;40.55;;;17.35;;
84288;SDS011;74602;50.294;18.660;2023-12-04T09:57:18;35.42;;;17.33;;
84288;SDS011;74602;50.294;18.660;2023-12-04T09:59:44;30.77;;;15.73;;
84288;SDS011;74602;50.294;18.660;2023-12-04T10:02:10;37.63;;;16.40;;
84288;SDS011;74602;50.294;18.660;2023-12-04T10:04:36;34.72;;;15.65;;
84288;SDS011;74602;50.294;18.660;2023-12-04T10:07:02;34.28;;;16.42;;
84288;SDS011;74602;50.294;18.660;2023-12-04T10:09:28;30.95;;;14.23;;
84288;SDS011;74602;50.294;18.660;2023-12-04T10:11:55;27.67;;;14.18;;
84288;SDS011;74602;50.294;18.660;2023-12-04T10:14:21;28.13;;;13.25;;
84288;SDS011;74602;50.294;18.660;2023-12-04T10:16:47;30.17;;;15.13;;
84288;SDS011;74602;50.294;18.660;2023-12-04T10:21:39;28.57;;;14.30;;
84288;SDS011;74602;50.294;18.660;2023-12-04T10:24:06;30.30;;;14.10;;
84288;SDS011;74602;50.294;18.660;2023-12-04T10:26:31;29.95;;;14.05;;
84288;SDS011;74602;50.294;18.660;2023-12-04T10:29:00;28.45;;;14.43;;
84288;SDS011;74602;50.294;18.660;2023-12-04T10:31:31;30.02;;;13.15;;
84288;SDS011;74602;50.294;18.660;2023-12-04T10:33:58;29.73;;;13.77;;
84288;SDS011;74602;50.294;18.660;2023-12-04T10:36:23;28.25;;;13.20;;
84288;SDS011;74602;50.294;18.660;2023-12-04T10:39:01;27.17;;;13.18;;
84288;SDS011;74602;50.294;18.660;2023-12-04T10:41:29;31.38;;;15.02;;
84288;SDS011;74602;50.294;18.660;2023-12-04T10:43:55;34.88;;;15.73;;
84288;SDS011;74602;50.294;18.660;2023-12-04T10:46:21;41.45;;;16.45;;
84288;SDS011;74602;50.294;18.660;2023-12-04T10:48:49;32.08;;;15.20;;
84288;SDS011;74602;50.294;18.660;2023-12-04T10:51:15;32.15;;;14.52;;
84288;SDS011;74602;50.294;18.660;2023-12-04T10:53:42;23.55;;;11.98;;
84288;SDS011;74602;50.294;18.660;2023-12-04T10:56:10;31.08;;;14.32;;
84288;SDS011;74602;50.294;18.660;2023-12-04T10:58:39;30.33;;;15.77;;
84288;SDS011;74602;50.294;18.660;2023-12-04T11:01:06;33.17;;;15.55;;
84288;SDS011;74602;50.294;18.660;2023-12-04T11:03:39;31.38;;;14.82;;
84288;SDS011;74602;50.294;18.660;2023-12-04T11:06:09;34.85;;;16.40;;
84288;SDS011;74602;50.294;18.660;2023-12-04T11:08:37;33.58;;;15.00;;
84288;SDS011;74602;50.294;18.660;2023-12-04T11:11:10;34.17;;;14.68;;
84288;SDS011;74602;50.294;18.660;2023-12-04T11:13:40;27.52;;;12.60;;
84288;SDS011;74602;50.294;18.660;2023-12-04T11:16:08;30.10;;;14.23;;
84288;SDS011;74602;50.294;18.660;2023-12-04T11:18:48;28.77;;;13.10;;
84288;SDS011;74602;50.294;18.660;2023-12-04T11:21:20;38.90;;;17.05;;
84288;SDS011;74602;50.294;18.660;2023-12-04T11:23:46;29.73;;;15.98;;
84288;SDS011;74602;50.294;18.660;2023-12-04T11:26:12;30.88;;;16.15;;
84288;SDS011;74602;50.294;18.660;2023-12-04T11:28:40;31.50;;;14.55;;
84288;SDS011;74602;50.294;18.660;2023-12-04T11:31:06;33.33;;;18.85;;
84288;SDS011;74602;50.294;18.660;2023-12-04T11:33:35;29.15;;;14.77;;
84288;SDS011;74602;50.294;18.660;2023-12-04T11:36:08;35.22;;;16.92;;
84288;SDS011;74602;50.294;18.660;2023-12-04T11:38:35;33.17;;;16.48;;
84288;SDS011;74602;50.294;18.660;2023-12-04T11:41:11;32.05;;;15.40;;
84288;SDS011;74602;50.294;18.660;2023-12-04T11:43:39;32.28;;;14.88;;
84288;SDS011;74602;50.294;18.660;2023-12-04T11:46:08;29.88;;;15.40;;
84288;SDS011;74602;50.294;18.660;2023-12-04T11:48:35;23.95;;;13.13;;
84288;SDS011;74602;50.294;18.660;2023-12-04T11:51:01;23.80;;;12.38;;
84288;SDS011;74602;50.294;18.660;2023-12-04T11:53:27;24.75;;;11.65;;
84288;SDS011;74602;50.294;18.660;2023-12-04T11:55:54;21.33;;;11.43;;
84288;SDS011;74602;50.294;18.660;2023-12-04T11:58:21;20.67;;;10.98;;
84288;SDS011;74602;50.294;18.660;2023-12-04T12:00:47;22.98;;;11.07;;
84288;SDS011;74602;50.294;18.660;2023-12-04T12:03:14;20.50;;;10.43;;
84288;SDS011;74602;50.294;18.660;2023-12-04T12:05:40;21.02;;;11.15;;
84288;SDS011;74602;50.294;18.660;2023-12-04T12:08:07;18.23;;;10.75;;
84288;SDS011;74602;50.294;18.660;2023-12-04T12:10:33;22.67;;;10.35;;
84288;SDS011;74602;50.294;18.660;2023-12-04T12:12:59;25.92;;;10.52;;
84288;SDS011;74602;50.294;18.660;2023-12-04T12:15:26;25.20;;;10.85;;
84288;SDS011;74602;50.294;18.660;2023-12-04T12:17:52;20.33;;;10.80;;
84288;SDS011;74602;50.294;18.660;2023-12-04T12:20:19;23.85;;;11.13;;
84288;SDS011;74602;50.294;18.660;2023-12-04T12:22:45;19.20;;;9.90;;
84288;SDS011;74602;50.294;18.660;2023-12-04T12:25:13;19.60;;;10.90;;
84288;SDS011;74602;50.294;18.660;2023-12-04T12:27:38;28.23;;;12.52;;
84288;SDS011;74602;50.294;18.660;2023-12-04T12:30:05;23.63;;;12.07;;
84288;SDS011;74602;50.294;18.660;2023-12-04T12:32:31;26.10;;;12.60;;
84288;SDS011;74602;50.294;18.660;2023-12-04T12:34:57;22.58;;;12.65;;
84288;SDS011;74602;50.294;18.660;2023-12-04T12:37:22;24.63;;;12.57;;
84288;SDS011;74602;50.294;18.660;2023-12-04T12:39:48;27.63;;;13.40;;
84288;SDS011;74602;50.294;18.660;2023-12-04T12:44:51;66.88;;;27.00;;
84288;SDS011;74602;50.294;18.660;2023-12-04T12:47:18;48.03;;;20.67;;
84288;SDS011;74602;50.294;18.660;2023-12-04T12:49:43;33.78;;;16.55;;
84288;SDS011;74602;50.294;18.660;2023-12-04T12:52:10;23.85;;;12.68;;
84288;SDS011;74602;50.294;18.660;2023-12-04T12:54:36;32.22;;;15.38;;
84288;SDS011;74602;50.294;18.660;2023-12-04T12:57:02;31.92;;;15.35;;
84288;SDS011;74602;50.294;18.660;2023-12-04T12:59:28;30.88;;;14.75;;
84288;SDS011;74602;50.294;18.660;2023-12-04T13:01:53;34.47;;;15.25;;
84288;SDS011;74602;50.294;18.660;2023-12-04T13:04:19;34.03;;;14.95;;
84288;SDS011;74602;50.294;18.660;2023-12-04T13:06:44;43.00;;;15.80;;
84288;SDS011;74602;50.294;18.660;2023-12-04T13:09:11;31.27;;;16.02;;
84288;SDS011;74602;50.294;18.660;2023-12-04T13:11:43;36.25;;;16.15;;
84288;SDS011;74602;50.294;18.660;2023-12-04T13:14:09;44.83;;;19.17;;
84288;SDS011;74602;50.294;18.660;2023-12-04T13:16:35;58.50;;;22.15;;
84288;SDS011;74602;50.294;18.660;2023-12-04T13:19:00;48.88;;;20.75;;
84288;SDS011;74602;50.294;18.660;2023-12-04T13:21:26;42.38;;;19.45;;
84288;SDS011;74602;50.294;18.660;2023-12-04T13:23:51;40.80;;;18.70;;
84288;SDS011;74602;50.294;18.660;2023-12-04T13:26:16;34.50;;;16.90;;
84288;SDS011;74602;50.294;18.660;2023-12-04T13:28:42;35.97;;;17.10;;
84288;SDS011;74602;50.294;18.660;2023-12-04T13:31:07;39.28;;;18.17;;
84288;SDS011;74602;50.294;18.660;2023-12-04T13:33:33;35.10;;;17.17;;
84288;SDS011;74602;50.294;18.660;2023-12-04T13:35:58;38.00;;;17.67;;
84288;SDS011;74602;50.294;18.660;2023-12-04T13:38:23;33.85;;;16.60;;
84288;SDS011;74602;50.294;18.660;2023-12-04T13:40:49;33.50;;;16.03;;
84288;SDS011;74602;50.294;18.660;2023-12-04T13:43:28;32.38;;;16.52;;
84288;SDS011;74602;50.294;18.660;2023-12-04T13:46:12;31.73;;;14.70;;
84288;SDS011;74602;50.294;18.660;2023-12-04T13:48:37;37.60;;;16.67;;
84288;SDS011;74602;50.294;18.660;2023-12-04T13:51:09;36.38;;;16.70;;
84288;SDS011;74602;50.294;18.660;2023-12-04T13:53:36;31.95;;;16.48;;
84288;SDS011;74602;50.294;18.660;2023-12-04T13:56:07;38.05;;;17.63;;
84288;SDS011;74602;50.294;18.660;2023-12-04T13:58:36;42.47;;;18.98;;
84288;SDS011;74602;50.294;18.660;2023-12-04T14:01:03;42.05;;;19.63;;
84288;SDS011;74602;50.294;18.660;2023-12-04T14:03:38;39.65;;;19.02;;
84288;SDS011;74602;50.294;18.660;2023-12-04T14:06:07;43.58;;;19.10;;
84288;SDS011;74602;50.294;18.660;2023-12-04T14:08:34;36.17;;;19.10;;